Time;durP1;ratioP1;P1;durP2;ratioP2;P2;SDS_P1;SDS_P2;PMS_P1;PMS_P2;Temp;Humidity;BMP_temperature;BMP_pressure;BME280_temperature;BME280_humidity;BME280_pressure;Samples;Min_cycle;Max_cycle;Signal;HPM_P1;HPM_P2
2023/07/20 00:01:15;;;;;;;5.30;2.70;;;19.80;54.00;;;;;;5042380;28;20172;-57
2023/07/20 00:03:41;;;;;;;7.60;2.53;;;19.70;54.00;;;;;;5042271;28;20181;-58
2023/07/20 00:06:06;;;;;;;18.00;2.47;;;19.70;54.10;;;;;;5033597;28;20199;-59
2023/07/20 00:08:32;;;;;;;7.67;2.77;;;19.70;54.10;;;;;;5040340;28;20195;-56
2023/07/20 00:10:58;;;;;;;5.53;2.93;;;19.70;53.80;;;;;;5042915;28;20842;-58
2023/07/20 00:13:24;;;;;;;7.07;2.90;;;19.70;54.20;;;;;;5036966;28;20611;-58
2023/07/20 00:15:50;;;;;;;10.23;2.77;;;19.60;54.20;;;;;;5036453;28;20206;-58
2023/07/20 00:18:16;;;;;;;8.03;3.00;;;19.60;54.50;;;;;;5036342;28;20182;-57
2023/07/20 00:20:42;;;;;;;7.57;3.33;;;19.60;54.30;;;;;;5043729;28;20434;-59
2023/07/20 00:23:07;;;;;;;4.97;2.80;;;19.50;54.20;;;;;;5040453;28;20180;-58
2023/07/20 00:25:33;;;;;;;9.53;2.90;;;19.50;54.70;;;;;;5036381;28;20179;-59
2023/07/20 00:27:59;;;;;;;13.40;4.13;;;19.50;54.80;;;;;;5036102;28;20639;-58
2023/07/20 00:30:25;;;;;;;7.00;2.80;;;19.50;54.70;;;;;;5035997;28;20183;-58
2023/07/20 00:32:50;;;;;;;4.90;2.70;;;19.50;54.70;;;;;;5037122;28;20179;-58
2023/07/20 00:35:16;;;;;;;6.53;3.03;;;19.50;54.90;;;;;;5041258;28;20176;-58
2023/07/20 00:37:42;;;;;;;5.70;3.40;;;19.40;54.60;;;;;;5035836;28;20206;-58
2023/07/20 00:40:07;;;;;;;3.67;2.97;;;19.40;54.70;;;;;;5036710;28;20180;-57
2023/07/20 00:42:34;;;;;;;5.13;3.23;;;19.40;54.70;;;;;;5038296;28;20577;-57
2023/07/20 00:45:00;;;;;;;8.43;3.27;;;19.40;55.10;;;;;;5034199;28;20259;-59
2023/07/20 00:47:26;;;;;;;6.00;3.30;;;19.30;54.90;;;;;;5039216;28;20541;-59
2023/07/20 00:49:52;;;;;;;11.03;3.50;;;19.30;54.80;;;;;;5030709;28;20249;-58
2023/07/20 00:52:20;;;;;;;4.87;2.83;;;19.20;55.20;;;;;;5039522;28;20487;-58
2023/07/20 00:54:46;;;;;;;8.20;3.43;;;19.20;55.60;;;;;;5036093;28;21416;-57
2023/07/20 00:57:15;;;;;;;4.53;3.47;;;19.20;55.40;;;;;;5044601;28;20446;-59
2023/07/20 00:59:41;;;;;;;3.70;3.03;;;19.10;55.30;;;;;;5039259;28;20451;-57
2023/07/20 01:02:07;;;;;;;8.10;3.43;;;19.10;55.40;;;;;;5037514;28;20938;-57
2023/07/20 01:04:33;;;;;;;11.13;3.60;;;19.10;55.30;;;;;;5037634;28;20744;-58
2023/07/20 01:07:17;;;;;;;9.30;2.90;;;19.00;55.10;;;;;;5032675;28;21107;-58
2023/07/20 01:09:55;;;;;;;6.90;3.63;;;19.00;55.10;;;;;;5036324;28;20581;-58
2023/07/20 01:12:32;;;;;;;4.13;3.10;;;19.00;55.20;;;;;;5036103;28;20441;-58
2023/07/20 01:14:58;;;;;;;10.33;3.30;;;18.90;55.30;;;;;;5030744;28;20804;-58
2023/07/20 01:17:24;;;;;;;6.53;3.07;;;18.90;55.30;;;;;;5034128;28;21605;-59
2023/07/20 01:19:49;;;;;;;11.17;3.70;;;18.90;55.60;;;;;;5039521;28;20317;-58
2023/07/20 01:22:46;;;;;;;7.50;3.40;;;18.90;55.50;;;;;;5041367;28;20175;-58
2023/07/20 01:25:26;;;;;;;6.90;3.60;;;18.80;55.80;;;;;;5032727;28;20662;-58
2023/07/20 01:28:31;;;;;;;7.33;4.07;;;18.70;56.00;;;;;;5041277;28;20932;-58
2023/07/20 01:31:25;;;;;;;8.47;3.27;;;18.70;56.10;;;;;;5037678;28;20457;-58
2023/07/20 01:33:55;;;;;;;4.83;2.90;;;18.60;56.30;;;;;;5037718;28;20430;-58
2023/07/20 01:36:23;;;;;;;7.00;3.47;;;18.50;56.40;;;;;;5031281;28;20441;-57
2023/07/20 01:38:49;;;;;;;5.80;3.43;;;18.50;56.70;;;;;;5033322;28;20452;-59
2023/07/20 01:41:15;;;;;;;5.87;3.83;;;18.40;56.70;;;;;;5039503;28;20430;-58
2023/07/20 01:43:42;;;;;;;10.60;3.57;;;18.40;56.80;;;;;;5036987;28;20604;-58
2023/07/20 01:46:07;;;;;;;5.47;3.20;;;18.40;57.10;;;;;;5036655;28;20639;-56
2023/07/20 01:48:33;;;;;;;6.97;3.20;;;18.30;57.30;;;;;;5036271;28;20511;-58
2023/07/20 01:50:58;;;;;;;5.80;3.43;;;18.30;57.40;;;;;;5035645;28;20182;-58
2023/07/20 01:53:24;;;;;;;5.23;3.47;;;18.20;57.40;;;;;;5041420;28;20262;-58
2023/07/20 01:55:52;;;;;;;4.80;3.30;;;18.20;57.60;;;;;;5036371;28;20677;-59
2023/07/20 01:58:17;;;;;;;5.53;3.40;;;18.10;57.80;;;;;;5040746;28;20667;-58
2023/07/20 02:00:43;;;;;;;9.30;3.57;;;18.10;58.00;;;;;;5038499;28;20433;-57
2023/07/20 02:03:08;;;;;;;11.70;3.43;;;18.00;58.00;;;;;;5038925;28;20209;-58
2023/07/20 02:05:34;;;;;;;5.30;3.43;;;18.00;57.90;;;;;;5034771;28;20184;-57
2023/07/20 02:08:00;;;;;;;4.30;3.37;;;17.90;57.70;;;;;;5030361;28;20250;-58
2023/07/20 02:10:25;;;;;;;7.00;4.07;;;17.90;57.60;;;;;;5035235;28;20183;-58
2023/07/20 02:12:51;;;;;;;5.77;3.17;;;17.90;57.80;;;;;;5032092;28;20180;-58
2023/07/20 02:15:18;;;;;;;6.73;3.80;;;17.90;58.10;;;;;;5034538;28;20176;-58
2023/07/20 02:17:44;;;;;;;5.37;3.53;;;17.80;58.20;;;;;;5033137;28;20188;-58
2023/07/20 02:20:10;;;;;;;6.90;3.90;;;17.80;58.20;;;;;;5039308;28;20479;-58
2023/07/20 02:22:37;;;;;;;4.60;3.60;;;17.70;58.10;;;;;;5041632;28;20171;-58
2023/07/20 02:25:05;;;;;;;9.30;3.80;;;17.70;58.20;;;;;;5027736;28;20425;-58
2023/07/20 02:27:30;;;;;;;4.67;3.53;;;17.70;58.20;;;;;;5038801;28;20449;-58
2023/07/20 02:29:56;;;;;;;7.10;3.73;;;17.60;58.60;;;;;;5036380;28;20599;-58
2023/07/20 02:32:22;;;;;;;5.70;3.67;;;17.50;58.10;;;;;;5036412;28;20206;-57
2023/07/20 02:34:47;;;;;;;8.47;3.90;;;17.50;58.20;;;;;;5036822;28;20262;-58
2023/07/20 02:37:13;;;;;;;8.07;4.20;;;17.50;58.20;;;;;;5043565;28;20203;-57
2023/07/20 02:39:39;;;;;;;12.77;3.80;;;17.50;58.60;;;;;;5036422;28;20223;-58
2023/07/20 02:42:05;;;;;;;5.00;3.07;;;17.40;57.90;;;;;;5043007;28;20741;-59
2023/07/20 02:44:31;;;;;;;5.40;3.70;;;17.40;57.90;;;;;;5031393;28;20429;-57
2023/07/20 02:46:57;;;;;;;5.40;3.63;;;17.40;57.80;;;;;;5037267;28;21090;-58
2023/07/20 02:49:22;;;;;;;6.77;4.53;;;17.40;57.90;;;;;;5043369;28;20195;-58
2023/07/20 02:51:48;;;;;;;9.27;3.70;;;17.40;57.90;;;;;;5040928;28;20221;-58
2023/07/20 02:54:13;;;;;;;7.80;4.80;;;17.30;58.00;;;;;;5040109;28;20656;-58
2023/07/20 02:56:39;;;;;;;8.20;4.20;;;17.30;58.00;;;;;;5040704;28;20227;-57
2023/07/20 02:59:04;;;;;;;10.07;3.73;;;17.30;58.10;;;;;;5035432;28;20187;-57
2023/07/20 03:01:30;;;;;;;7.70;4.13;;;17.20;58.00;;;;;;5030396;28;20675;-57
2023/07/20 03:03:56;;;;;;;8.43;4.73;;;17.20;58.20;;;;;;5036994;28;20205;-58
2023/07/20 03:06:22;;;;;;;7.57;4.00;;;17.20;58.40;;;;;;5033424;28;21091;-56
2023/07/20 03:08:48;;;;;;;7.30;3.70;;;17.20;58.60;;;;;;5033898;28;20230;-57
2023/07/20 03:11:17;;;;;;;5.57;3.80;;;17.10;58.40;;;;;;5041387;28;20514;-58
2023/07/20 03:13:44;;;;;;;8.00;4.23;;;17.10;58.50;;;;;;5037632;28;20966;-57
2023/07/20 03:16:12;;;;;;;8.80;4.07;;;17.10;58.60;;;;;;5040592;28;20447;-56
2023/07/20 03:18:38;;;;;;;8.43;3.93;;;17.00;58.70;;;;;;5040566;28;20426;-56
2023/07/20 03:21:05;;;;;;;7.40;3.70;;;17.00;59.00;;;;;;5036213;28;20422;-57
2023/07/20 03:23:30;;;;;;;5.13;3.63;;;16.90;59.20;;;;;;5040756;28;20513;-56
2023/07/20 03:25:56;;;;;;;8.00;4.10;;;16.90;59.40;;;;;;5043669;28;20532;-56
2023/07/20 03:28:22;;;;;;;6.90;3.70;;;16.80;59.60;;;;;;5047171;28;20206;-56
2023/07/20 03:30:55;;;;;;;11.53;4.00;;;16.80;60.00;;;;;;5032572;28;20175;-57
2023/07/20 03:33:29;;;;;;;4.53;3.83;;;16.70;60.10;;;;;;5029552;28;20194;-57
2023/07/20 03:35:55;;;;;;;6.13;3.77;;;16.70;60.40;;;;;;5038265;28;20533;-58
2023/07/20 03:38:21;;;;;;;7.20;4.40;;;16.60;60.60;;;;;;5034290;28;20576;-57
2023/07/20 03:40:54;;;;;;;5.80;3.80;;;16.60;61.00;;;;;;5031735;28;20438;-58
2023/07/20 03:43:24;;;;;;;6.77;3.83;;;16.50;61.20;;;;;;5027281;28;20935;-57
2023/07/20 03:45:51;;;;;;;6.83;4.00;;;16.50;61.60;;;;;;5037371;28;20908;-57
2023/07/20 03:48:17;;;;;;;5.93;4.30;;;16.40;62.40;;;;;;5032301;28;20445;-58
2023/07/20 03:50:45;;;;;;;5.83;4.10;;;16.40;62.50;;;;;;5027804;28;20491;-52
2023/07/20 03:53:11;;;;;;;6.93;4.23;;;16.30;62.70;;;;;;5034096;28;20438;-55
2023/07/20 03:55:36;;;;;;;9.20;4.53;;;16.30;62.30;;;;;;5022364;28;20445;-57
2023/07/20 03:58:03;;;;;;;8.57;3.77;;;16.30;62.30;;;;;;5044522;28;20187;-57
2023/07/20 04:00:28;;;;;;;5.77;3.87;;;16.30;62.30;;;;;;5033396;28;21926;-57
2023/07/20 04:02:54;;;;;;;14.63;4.20;;;16.30;62.50;;;;;;5036571;28;20430;-56
2023/07/20 04:05:20;;;;;;;5.17;3.77;;;16.30;63.10;;;;;;5036850;28;20604;-56
2023/07/20 04:07:45;;;;;;;6.50;3.90;;;16.30;63.80;;;;;;5044677;28;20199;-57
2023/07/20 04:10:11;;;;;;;9.60;4.03;;;16.20;64.20;;;;;;5039191;28;20190;-57
2023/07/20 04:12:37;;;;;;;4.70;3.83;;;16.30;64.80;;;;;;5035857;28;20233;-55
2023/07/20 04:15:03;;;;;;;5.30;3.77;;;16.20;65.10;;;;;;5041727;28;20276;-57
2023/07/20 04:17:29;;;;;;;8.50;4.20;;;16.20;65.80;;;;;;5039270;28;20219;-57
2023/07/20 04:19:54;;;;;;;12.63;5.10;;;16.20;66.60;;;;;;5043300;28;20549;-57
2023/07/20 04:22:21;;;;;;;5.87;4.43;;;16.20;67.40;;;;;;5028908;28;20260;-57
2023/07/20 04:24:46;;;;;;;8.00;4.43;;;16.20;66.90;;;;;;5016684;28;20233;-58
2023/07/20 04:27:12;;;;;;;5.27;4.43;;;16.20;66.70;;;;;;5020001;28;20461;-57
2023/07/20 04:29:37;;;;;;;5.87;3.90;;;16.20;67.10;;;;;;5014672;28;20700;-57
2023/07/20 04:32:03;;;;;;;6.10;4.00;;;16.20;67.20;;;;;;5018692;28;20182;-58
2023/07/20 04:34:29;;;;;;;6.47;4.10;;;16.20;67.20;;;;;;5023215;28;20242;-57
2023/07/20 04:36:55;;;;;;;7.43;4.07;;;16.20;66.90;;;;;;5027932;28;20200;-57
2023/07/20 04:39:20;;;;;;;12.70;4.87;;;16.20;66.70;;;;;;5026656;28;20605;-56
2023/07/20 04:41:46;;;;;;;6.67;3.80;;;16.20;66.60;;;;;;5035537;28;20190;-55
2023/07/20 04:44:13;;;;;;;6.40;4.13;;;16.20;66.70;;;;;;5029853;28;20187;-58
2023/07/20 04:46:39;;;;;;;8.90;4.40;;;16.20;66.90;;;;;;5030776;28;20208;-58
2023/07/20 04:49:05;;;;;;;10.97;4.40;;;16.20;67.10;;;;;;5028010;28;20453;-57
2023/07/20 04:51:31;;;;;;;5.37;4.20;;;16.20;67.60;;;;;;5037626;28;20440;-57
2023/07/20 04:53:57;;;;;;;8.50;4.50;;;16.20;68.30;;;;;;5031103;28;20465;-57
2023/07/20 04:56:24;;;;;;;8.47;5.37;;;16.20;68.70;;;;;;5022702;28;20191;-56
2023/07/20 04:58:50;;;;;;;6.70;4.17;;;16.30;68.50;;;;;;5033633;28;21099;-57
2023/07/20 05:01:15;;;;;;;6.63;3.77;;;16.30;68.40;;;;;;5032053;28;20485;-57
2023/07/20 05:03:41;;;;;;;5.37;3.80;;;16.40;67.50;;;;;;5040154;28;20940;-57
2023/07/20 05:06:07;;;;;;;6.77;3.93;;;16.40;67.70;;;;;;5031481;28;20214;-57
2023/07/20 05:08:33;;;;;;;6.63;4.00;;;16.40;67.10;;;;;;5042518;28;20752;-57
2023/07/20 05:11:00;;;;;;;6.73;3.90;;;16.50;66.60;;;;;;5039476;28;20266;-57
2023/07/20 05:13:25;;;;;;;6.03;3.97;;;16.50;66.80;;;;;;5032393;28;22217;-57
2023/07/20 05:15:54;;;;;;;7.00;3.80;;;16.60;66.40;;;;;;5037214;28;20430;-56
2023/07/20 05:18:20;;;;;;;11.43;4.70;;;16.70;66.50;;;;;;5031110;28;20210;-57
2023/07/20 05:20:50;;;;;;;13.00;3.93;;;16.70;66.30;;;;;;5033142;28;20473;-56
2023/07/20 05:23:22;;;;;;;10.57;4.80;;;16.80;67.10;;;;;;5037611;28;20433;-57
2023/07/20 05:25:54;;;;;;;19.17;4.20;;;16.90;66.80;;;;;;5036419;28;20460;-57
2023/07/20 05:28:20;;;;;;;6.50;4.20;;;17.00;66.20;;;;;;5039007;28;20473;-57
2023/07/20 05:30:46;;;;;;;13.27;5.03;;;17.10;65.70;;;;;;5037919;28;21153;-57
2023/07/20 05:33:11;;;;;;;8.07;4.30;;;17.20;65.30;;;;;;5035273;28;20187;-56
2023/07/20 05:35:37;;;;;;;6.63;3.97;;;17.20;65.60;;;;;;5041510;28;20175;-58
2023/07/20 05:38:05;;;;;;;8.50;4.30;;;17.30;66.20;;;;;;5030299;28;20569;-57
2023/07/20 05:40:31;;;;;;;9.83;4.47;;;17.30;65.80;;;;;;5035497;28;20164;-56
2023/07/20 05:42:56;;;;;;;7.53;3.93;;;17.40;64.30;;;;;;5040992;28;20441;-58
2023/07/20 05:45:22;;;;;;;6.97;4.83;;;17.40;64.30;;;;;;5041875;28;20209;-58
2023/07/20 05:47:48;;;;;;;11.00;5.13;;;17.50;64.10;;;;;;5039873;28;20705;-58
2023/07/20 05:50:14;;;;;;;10.00;6.03;;;17.60;64.70;;;;;;5034896;28;20434;-56
2023/07/20 05:52:40;;;;;;;12.87;5.60;;;17.60;63.30;;;;;;5037719;28;20183;-58
2023/07/20 05:55:06;;;;;;;6.90;5.30;;;17.60;63.40;;;;;;5033034;28;20184;-56
2023/07/20 05:57:32;;;;;;;8.93;5.17;;;17.60;63.20;;;;;;5025849;28;20855;-55
2023/07/20 05:59:58;;;;;;;11.10;6.50;;;17.70;62.90;;;;;;5036104;28;20491;-58
2023/07/20 06:02:24;;;;;;;19.43;6.43;;;17.80;62.80;;;;;;5036317;28;20457;-58
2023/07/20 06:04:49;;;;;;;11.63;4.90;;;17.80;63.30;;;;;;5035701;28;20676;-57
2023/07/20 06:07:15;;;;;;;13.03;6.00;;;17.90;63.90;;;;;;5032690;28;20641;-58
2023/07/20 06:09:41;;;;;;;18.00;5.50;;;18.00;64.50;;;;;;5022470;28;20214;-56
2023/07/20 06:12:07;;;;;;;5.90;4.90;;;18.00;64.00;;;;;;5032184;28;20176;-57
2023/07/20 06:14:33;;;;;;;10.40;4.80;;;17.90;63.20;;;;;;5034895;28;21132;-57
2023/07/20 06:16:58;;;;;;;7.13;3.90;;;17.90;63.00;;;;;;5025843;28;20481;-58
2023/07/20 06:19:24;;;;;;;11.40;4.80;;;17.90;62.60;;;;;;5038792;28;20236;-58
2023/07/20 06:21:50;;;;;;;8.47;4.67;;;17.90;63.10;;;;;;5038056;28;20183;-58
2023/07/20 06:24:16;;;;;;;7.53;4.00;;;17.80;63.70;;;;;;5038695;28;20211;-58
2023/07/20 06:26:42;;;;;;;5.63;4.07;;;17.80;63.60;;;;;;5038231;28;20204;-57
2023/07/20 06:29:11;;;;;;;5.33;4.67;;;17.80;63.00;;;;;;5033745;28;20575;-57
2023/07/20 06:31:36;;;;;;;10.23;4.67;;;17.80;63.60;;;;;;5033087;28;20599;-57
2023/07/20 06:34:03;;;;;;;8.10;4.77;;;17.90;65.10;;;;;;5037403;28;20468;-57
2023/07/20 06:36:29;;;;;;;15.63;5.67;;;18.00;65.50;;;;;;5038695;28;20224;-57
2023/07/20 06:38:56;;;;;;;23.87;5.13;;;18.10;66.60;;;;;;5026795;28;20454;-56
2023/07/20 06:41:22;;;;;;;9.07;5.30;;;18.20;65.90;;;;;;5040195;28;20641;-57
2023/07/20 06:43:47;;;;;;;10.90;6.00;;;18.30;67.00;;;;;;5046799;28;20528;-55
2023/07/20 06:46:13;;;;;;;8.03;5.10;;;18.30;66.80;;;;;;5035252;28;20263;-56
2023/07/20 06:48:38;;;;;;;11.47;6.37;;;18.40;67.10;;;;;;5039177;28;20203;-56
2023/07/20 06:51:05;;;;;;;14.50;5.90;;;18.40;66.60;;;;;;5036948;28;20281;-56
2023/07/20 06:53:32;;;;;;;9.07;5.50;;;18.50;66.60;;;;;;5032838;28;20453;-57
2023/07/20 06:55:58;;;;;;;13.57;5.87;;;18.70;66.50;;;;;;5037783;28;20211;-57
2023/07/20 06:58:24;;;;;;;8.83;5.03;;;18.80;66.00;;;;;;5044172;28;20520;-57
2023/07/20 07:00:50;;;;;;;14.70;4.60;;;18.80;65.20;;;;;;5033219;28;20266;-57
2023/07/20 07:03:16;;;;;;;16.60;5.60;;;19.00;64.10;;;;;;5038902;28;20588;-57
2023/07/20 07:05:41;;;;;;;10.23;4.50;;;19.10;62.90;;;;;;5038202;28;20195;-57
2023/07/20 07:08:07;;;;;;;21.17;5.63;;;19.20;62.70;;;;;;5042311;28;20270;-57
2023/07/20 07:10:35;;;;;;;13.00;4.50;;;19.40;62.80;;;;;;5037543;28;20851;-56
2023/07/20 07:13:01;;;;;;;9.50;4.27;;;19.50;61.50;;;;;;5041651;28;20180;-57
2023/07/20 07:15:27;;;;;;;5.47;3.47;;;19.60;59.20;;;;;;5045997;28;20429;-56
2023/07/20 07:17:53;;;;;;;13.03;4.03;;;19.60;59.50;;;;;;5041300;28;20199;-57
2023/07/20 07:20:19;;;;;;;13.40;4.30;;;19.70;58.10;;;;;;5039883;28;20709;-57
2023/07/20 07:22:45;;;;;;;6.13;4.07;;;19.70;58.60;;;;;;5038109;28;20207;-57
2023/07/20 07:25:10;;;;;;;6.10;3.63;;;19.70;58.80;;;;;;5045122;28;20190;-57
2023/07/20 07:27:36;;;;;;;5.40;3.57;;;19.70;57.30;;;;;;5043015;28;20820;-57
2023/07/20 07:30:03;;;;;;;7.10;3.50;;;19.60;57.00;;;;;;5038162;28;20235;-57
2023/07/20 07:32:28;;;;;;;7.80;2.83;;;19.60;57.00;;;;;;5034949;28;20172;-57
2023/07/20 07:34:55;;;;;;;4.70;3.33;;;19.60;56.00;;;;;;5036072;28;20563;-57
2023/07/20 07:37:20;;;;;;;8.80;3.33;;;19.70;55.40;;;;;;5044928;28;20276;-57
2023/07/20 07:39:46;;;;;;;9.57;3.50;;;19.70;53.90;;;;;;5042427;28;20556;-57
2023/07/20 07:42:12;;;;;;;7.10;3.80;;;19.60;53.60;;;;;;5044275;28;20179;-56
2023/07/20 07:44:38;;;;;;;9.53;3.67;;;19.60;56.00;;;;;;5038085;28;20202;-57
2023/07/20 07:47:04;;;;;;;6.37;3.43;;;19.70;56.60;;;;;;5042649;28;20461;-57
2023/07/20 07:49:29;;;;;;;8.20;3.73;;;19.80;55.70;;;;;;5041905;28;20259;-57
2023/07/20 07:51:55;;;;;;;6.60;3.40;;;20.00;55.70;;;;;;5042005;28;20179;-58
2023/07/20 07:54:20;;;;;;;6.57;3.20;;;20.10;54.00;;;;;;5036722;28;20259;-57
2023/07/20 07:56:46;;;;;;;7.67;3.30;;;20.00;53.50;;;;;;5026587;28;20192;-58
2023/07/20 07:59:12;;;;;;;7.30;3.33;;;20.10;53.80;;;;;;5028572;28;20188;-57
2023/07/20 08:01:37;;;;;;;5.80;3.60;;;20.10;52.60;;;;;;5030044;28;20180;-57
2023/07/20 08:04:03;;;;;;;3.53;3.17;;;20.00;52.90;;;;;;5024834;28;20191;-57
2023/07/20 08:06:29;;;;;;;3.63;3.07;;;20.00;54.00;;;;;;5035460;28;20205;-57
2023/07/20 08:08:55;;;;;;;5.83;2.93;;;20.10;53.40;;;;;;5041787;28;20458;-57
2023/07/20 08:11:20;;;;;;;5.10;2.90;;;20.10;54.10;;;;;;5045066;28;20176;-56
2023/07/20 08:13:46;;;;;;;9.70;3.50;;;20.20;54.80;;;;;;5035092;28;20664;-56
2023/07/20 08:16:12;;;;;;;5.20;2.73;;;20.30;54.40;;;;;;5039350;28;20636;-56
2023/07/20 08:18:37;;;;;;;4.27;3.10;;;20.30;53.70;;;;;;5039539;28;20183;-56
2023/07/20 08:21:03;;;;;;;4.57;3.50;;;20.40;54.10;;;;;;5036335;28;20202;-57
2023/07/20 08:23:29;;;;;;;9.40;3.10;;;20.40;53.80;;;;;;5040049;28;20270;-58
2023/07/20 08:25:55;;;;;;;7.67;3.13;;;20.40;53.90;;;;;;5039034;28;20186;-56
2023/07/20 08:28:20;;;;;;;7.53;2.70;;;20.50;54.00;;;;;;5040471;28;20241;-57
2023/07/20 08:30:48;;;;;;;7.97;3.20;;;20.70;53.50;;;;;;5036141;28;20488;-56
2023/07/20 08:33:15;;;;;;;3.93;2.90;;;20.80;53.00;;;;;;5042688;28;20250;-57
2023/07/20 08:35:41;;;;;;;10.83;3.60;;;20.80;52.20;;;;;;5040108;28;20440;-56
2023/07/20 08:38:07;;;;;;;8.30;3.10;;;21.00;52.00;;;;;;5040749;28;20452;-57
2023/07/20 08:40:34;;;;;;;5.47;3.10;;;21.10;51.80;;;;;;5035862;28;20429;-57
2023/07/20 08:43:00;;;;;;;3.90;3.00;;;21.20;51.10;;;;;;5037723;28;20439;-57
2023/07/20 08:45:31;;;;;;;8.60;2.97;;;21.30;51.40;;;;;;5054143;28;20533;-56
2023/07/20 08:47:59;;;;;;;5.80;2.87;;;21.30;50.40;;;;;;5033776;28;20542;-56
2023/07/20 08:50:26;;;;;;;7.70;2.53;;;21.20;50.10;;;;;;5039421;28;20451;-56
2023/07/20 08:52:53;;;;;;;6.93;3.00;;;21.20;50.80;;;;;;5039036;28;21025;-56
2023/07/20 08:55:23;;;;;;;4.43;3.10;;;21.20;51.10;;;;;;5040971;28;22045;-57
2023/07/20 08:57:52;;;;;;;5.33;3.30;;;21.10;51.20;;;;;;5043165;28;20473;-56
2023/07/20 09:00:20;;;;;;;7.93;3.50;;;21.00;51.50;;;;;;5036049;28;21161;-56
2023/07/20 09:02:49;;;;;;;5.83;3.40;;;21.00;51.50;;;;;;5038421;28;20798;-57
2023/07/20 09:05:14;;;;;;;5.83;2.90;;;21.00;51.00;;;;;;5039647;28;20434;-57
2023/07/20 09:07:40;;;;;;;4.13;2.83;;;20.80;51.50;;;;;;5042369;28;20459;-58
2023/07/20 09:10:07;;;;;;;10.53;3.40;;;20.80;52.30;;;;;;5040921;28;20214;-57
2023/07/20 09:12:36;;;;;;;5.70;2.97;;;20.80;52.20;;;;;;5041248;28;20942;-56
2023/07/20 09:15:03;;;;;;;9.33;3.30;;;20.80;52.30;;;;;;5040954;28;20415;-57
2023/07/20 09:17:28;;;;;;;3.10;2.70;;;20.90;51.80;;;;;;5040956;28;20448;-57
2023/07/20 09:19:54;;;;;;;4.37;3.23;;;21.00;51.70;;;;;;5039273;28;20467;-57
2023/07/20 09:22:19;;;;;;;4.00;2.63;;;21.20;51.10;;;;;;5042976;28;20176;-57
2023/07/20 09:24:45;;;;;;;7.10;3.10;;;21.30;50.70;;;;;;5034746;28;20172;-56
2023/07/20 09:27:11;;;;;;;5.00;2.57;;;21.40;50.40;;;;;;5039383;28;20714;-57
2023/07/20 09:29:50;;;;;;;6.07;3.50;;;21.50;50.80;;;;;;5036431;28;20847;-57
2023/07/20 09:32:20;;;;;;;5.73;2.70;;;21.70;50.70;;;;;;5043733;28;20674;-57
2023/07/20 09:34:46;;;;;;;5.53;2.83;;;21.90;50.80;;;;;;5041486;28;20771;-56
2023/07/20 09:37:12;;;;;;;6.70;3.00;;;22.10;50.10;;;;;;5037829;28;20452;-56
2023/07/20 09:39:46;;;;;;;10.43;3.17;;;22.10;51.00;;;;;;5037831;28;20183;-56
2023/07/20 09:42:13;;;;;;;6.80;3.40;;;22.20;51.30;;;;;;5038886;28;20226;-56
2023/07/20 09:44:40;;;;;;;4.80;3.33;;;22.10;50.10;;;;;;5044185;28;20476;-57
2023/07/20 09:47:06;;;;;;;3.43;2.90;;;22.10;51.00;;;;;;5040630;28;20488;-57
2023/07/20 09:49:32;;;;;;;5.37;2.70;;;22.10;50.70;;;;;;5030120;28;20457;-57
2023/07/20 09:52:00;;;;;;;5.80;3.37;;;22.10;50.00;;;;;;5044708;28;20175;-57
2023/07/20 09:54:27;;;;;;;5.63;2.57;;;22.00;50.70;;;;;;5039100;28;21231;-57
2023/07/20 09:56:53;;;;;;;6.67;3.03;;;22.00;51.50;;;;;;5032588;28;21027;-57
2023/07/20 09:59:19;;;;;;;6.80;3.10;;;22.00;51.90;;;;;;5036407;28;20425;-57
2023/07/20 10:01:47;;;;;;;3.43;2.70;;;22.00;52.00;;;;;;5033187;28;20965;-57
2023/07/20 10:04:14;;;;;;;8.27;4.40;;;22.30;51.60;;;;;;5032913;28;20179;-57
2023/07/20 10:06:43;;;;;;;3.43;2.80;;;22.60;51.70;;;;;;5038077;28;20861;-57
2023/07/20 10:09:12;;;;;;;4.83;3.03;;;22.80;51.80;;;;;;5030770;28;20457;-57
2023/07/20 10:11:43;;;;;;;6.30;3.63;;;22.90;50.00;;;;;;5031595;28;20429;-57
2023/07/20 10:14:12;;;;;;;3.50;3.20;;;23.10;50.20;;;;;;5034973;28;20450;-57
2023/07/20 10:16:47;;;;;;;6.70;3.13;;;23.10;50.20;;;;;;5029079;28;20485;-57
2023/07/20 10:19:42;;;;;;;5.37;2.47;;;23.10;50.10;;;;;;5038645;28;20962;-58
2023/07/20 10:22:14;;;;;;;6.40;3.20;;;23.10;48.90;;;;;;5038676;28;20864;-57
2023/07/20 10:24:45;;;;;;;4.93;2.83;;;23.30;50.10;;;;;;5037530;28;20426;-57
2023/07/20 10:27:11;;;;;;;8.43;3.30;;;23.60;50.10;;;;;;5039783;28;20454;-57
2023/07/20 10:29:37;;;;;;;5.90;2.43;;;23.80;49.40;;;;;;5037350;28;20459;-57
2023/07/20 10:32:04;;;;;;;4.17;2.60;;;23.80;48.80;;;;;;5029727;28;20704;-57
2023/07/20 10:34:30;;;;;;;3.73;2.43;;;23.60;46.60;;;;;;5042709;28;20508;-56
2023/07/20 10:36:55;;;;;;;5.00;2.67;;;23.30;46.80;;;;;;5047532;28;20854;-57
2023/07/20 10:39:27;;;;;;;5.17;2.47;;;23.00;46.50;;;;;;5041096;28;20716;-57
2023/07/20 10:42:01;;;;;;;2.73;2.30;;;22.80;47.60;;;;;;5039871;28;20206;-57
2023/07/20 10:44:27;;;;;;;4.83;2.70;;;22.80;48.10;;;;;;5040691;28;20510;-57
2023/07/20 10:47:02;;;;;;;5.00;2.83;;;22.90;47.40;;;;;;5041489;28;21115;-57
2023/07/20 10:49:28;;;;;;;6.30;2.60;;;23.00;47.20;;;;;;5041789;28;20236;-57
2023/07/20 10:51:59;;;;;;;3.27;2.73;;;23.00;46.20;;;;;;5044347;28;20441;-57
2023/07/20 10:54:28;;;;;;;4.93;2.80;;;22.90;46.00;;;;;;5047201;28;20752;-57
2023/07/20 10:56:56;;;;;;;6.00;2.73;;;22.80;47.10;;;;;;5037303;28;20459;-58
2023/07/20 10:59:42;;;;;;;4.90;2.60;;;22.70;46.90;;;;;;5043052;28;20490;-56
2023/07/20 11:02:08;;;;;;;3.50;2.60;;;22.60;48.00;;;;;;5039641;28;21042;-57
2023/07/20 11:04:45;;;;;;;4.80;2.37;;;22.80;47.30;;;;;;5043516;28;20441;-57
2023/07/20 11:07:16;;;;;;;6.13;2.27;;;23.10;46.40;;;;;;5033982;28;20453;-56
2023/07/20 11:09:42;;;;;;;7.33;2.80;;;23.20;45.30;;;;;;5037267;28;20472;-56
2023/07/20 11:12:11;;;;;;;2.50;1.90;;;23.10;46.00;;;;;;5039386;28;22420;-57
2023/07/20 11:14:44;;;;;;;5.80;2.50;;;23.20;45.80;;;;;;5039486;28;20433;-56
2023/07/20 11:17:14;;;;;;;4.20;2.63;;;23.40;46.20;;;;;;5041482;28;20820;-57
2023/07/20 11:19:42;;;;;;;4.60;2.70;;;23.80;45.90;;;;;;5033586;28;20474;-57
2023/07/20 11:22:09;;;;;;;2.40;2.20;;;24.10;45.20;;;;;;5037380;28;20438;-56
2023/07/20 11:24:39;;;;;;;4.50;2.23;;;24.20;44.90;;;;;;5036534;28;20432;-57
2023/07/20 11:27:05;;;;;;;6.53;2.70;;;24.00;42.80;;;;;;5040510;28;20848;-57
2023/07/20 11:29:31;;;;;;;3.00;2.23;;;23.70;43.60;;;;;;5043686;28;20468;-57
2023/07/20 11:31:58;;;;;;;5.17;2.13;;;23.70;44.60;;;;;;5034391;28;20175;-56
2023/07/20 11:34:24;;;;;;;3.13;2.43;;;24.00;46.00;;;;;;5038023;28;20188;-56
2023/07/20 11:36:51;;;;;;;6.23;2.30;;;24.20;45.20;;;;;;5035525;28;20461;-56
2023/07/20 11:39:21;;;;;;;10.53;2.80;;;24.30;42.90;;;;;;5031056;28;20187;-56
2023/07/20 11:41:57;;;;;;;2.90;2.00;;;24.10;43.80;;;;;;5027905;28;20430;-57
2023/07/20 11:44:28;;;;;;;6.33;2.53;;;24.10;44.20;;;;;;5024543;28;20437;-56
2023/07/20 11:47:20;;;;;;;2.97;2.40;;;24.00;43.30;;;;;;5036301;28;21422;-57
2023/07/20 11:49:50;;;;;;;3.07;2.10;;;24.30;44.50;;;;;;5030819;28;20885;-56
2023/07/20 11:52:16;;;;;;;5.90;2.60;;;24.50;45.20;;;;;;5032438;28;20421;-56
2023/07/20 11:54:43;;;;;;;4.90;2.33;;;24.50;45.30;;;;;;5028787;28;20442;-57
2023/07/20 11:57:21;;;;;;;2.37;2.17;;;24.50;44.30;;;;;;5038475;28;20445;-57
2023/07/20 12:00:00;;;;;;;5.30;2.53;;;24.40;44.40;;;;;;5031800;28;20503;-57
2023/07/20 12:02:29;;;;;;;2.43;1.80;;;24.40;45.10;;;;;;5031818;28;20509;-56
2023/07/20 12:04:55;;;;;;;3.17;2.20;;;24.40;45.10;;;;;;5038245;28;20426;-59
2023/07/20 12:07:21;;;;;;;5.50;2.20;;;24.30;46.20;;;;;;5036186;28;20457;-56
2023/07/20 12:10:06;;;;;;;3.40;2.27;;;24.10;45.50;;;;;;5039254;28;20466;-57
2023/07/20 12:12:42;;;;;;;7.13;2.13;;;24.00;45.40;;;;;;5035299;28;20429;-57
2023/07/20 12:15:14;;;;;;;5.53;2.03;;;23.90;45.50;;;;;;5040542;28;20489;-57
2023/07/20 12:17:46;;;;;;;2.73;1.93;;;23.80;45.70;;;;;;5037777;28;20437;-57
2023/07/20 12:20:12;;;;;;;4.37;2.20;;;23.90;44.40;;;;;;5036204;28;20439;-57
2023/07/20 12:22:43;;;;;;;4.30;2.43;;;24.00;43.70;;;;;;5041633;28;20517;-57
2023/07/20 12:25:09;;;;;;;5.97;2.50;;;24.10;44.20;;;;;;5032516;28;20969;-57
2023/07/20 12:27:38;;;;;;;4.30;2.23;;;24.50;44.80;;;;;;5033311;28;20450;-57
2023/07/20 12:30:05;;;;;;;2.10;1.90;;;25.00;45.30;;;;;;5037745;28;20249;-57
2023/07/20 12:32:31;;;;;;;6.00;2.10;;;25.50;45.10;;;;;;5033081;28;20517;-57
2023/07/20 12:34:57;;;;;;;5.80;2.30;;;25.80;42.70;;;;;;5034661;28;20525;-57
2023/07/20 12:37:23;;;;;;;3.53;2.30;;;26.10;42.80;;;;;;5032050;28;20273;-57
2023/07/20 12:39:49;;;;;;;4.20;2.20;;;26.40;43.40;;;;;;5036177;28;20199;-57
2023/07/20 12:42:17;;;;;;;5.33;2.00;;;26.40;43.10;;;;;;5036759;28;21142;-57
2023/07/20 12:44:43;;;;;;;3.27;2.23;;;26.30;43.80;;;;;;5036010;28;20648;-57
2023/07/20 12:47:08;;;;;;;4.50;2.23;;;26.50;44.00;;;;;;5027372;28;20446;-57